createdAt,value
2019-02-21T00:01:32.473Z,22.47
2019-02-21T00:04:01.968Z,22.80
2019-02-21T00:06:31.188Z,23.03
2019-02-21T00:09:00.758Z,21.43
2019-02-21T00:11:30.673Z,23.07
2019-02-21T00:14:00.878Z,21.80
2019-02-21T00:16:30.870Z,21.73
2019-02-21T00:19:01.120Z,22.83
2019-02-21T00:21:31.106Z,21.30
2019-02-21T00:24:00.406Z,22.50
2019-02-21T00:26:30.371Z,21.60
2019-02-21T00:28:59.958Z,22.33
2019-02-21T00:31:29.319Z,22.67
2019-02-21T00:33:59.504Z,22.90
2019-02-21T00:36:29.468Z,22.03
2019-02-21T00:38:58.673Z,22.37
2019-02-21T00:41:27.966Z,23.27
2019-02-21T00:43:57.310Z,21.43
2019-02-21T00:46:26.717Z,22.63
2019-02-21T00:48:56.390Z,23.40
2019-02-21T00:51:26.054Z,22.87
2019-02-21T00:53:55.347Z,21.13
2019-02-21T00:56:24.747Z,21.90
2019-02-21T00:58:54.355Z,22.30
2019-02-21T01:01:23.737Z,21.60
2019-02-21T01:03:53.056Z,22.23
2019-02-21T01:06:22.396Z,22.97
2019-02-21T01:08:51.661Z,22.83
2019-02-21T01:11:21.001Z,22.93
2019-02-21T01:13:50.682Z,22.50
2019-02-21T01:16:19.931Z,22.27
2019-02-21T01:18:49.247Z,22.73
2019-02-21T01:21:18.530Z,22.47
2019-02-21T01:23:47.931Z,23.33
2019-02-21T01:26:17.269Z,22.60
2019-02-21T01:28:46.679Z,23.57
2019-02-21T01:31:16.409Z,23.50
2019-02-21T01:33:45.808Z,22.90
2019-02-21T01:36:15.233Z,23.57
2019-02-21T01:38:44.421Z,23.77
2019-02-21T01:41:13.641Z,23.30
2019-02-21T01:43:42.926Z,23.27
2019-02-21T01:46:12.183Z,23.43
2019-02-21T01:48:41.453Z,24.07
2019-02-21T01:51:11.407Z,23.93
2019-02-21T01:53:40.937Z,23.83
2019-02-21T01:56:10.841Z,23.53
2019-02-21T01:58:40.181Z,23.20
2019-02-21T02:01:09.493Z,23.63
2019-02-21T02:03:38.915Z,22.97
2019-02-21T02:06:08.181Z,23.93
2019-02-21T02:08:38.167Z,23.83
2019-02-21T02:11:07.544Z,23.47
2019-02-21T02:13:36.895Z,24.63
2019-02-21T02:16:06.267Z,24.83
2019-02-21T02:18:36.385Z,23.90
2019-02-21T02:21:07.196Z,25.07
2019-02-21T02:23:36.475Z,24.60
2019-02-21T02:26:06.046Z,25.17
2019-02-21T02:28:35.332Z,25.37
2019-02-21T02:31:04.670Z,24.93
2019-02-21T02:33:34.356Z,26.03
2019-02-21T02:36:03.712Z,26.13
2019-02-21T02:38:33.324Z,25.53
2019-02-21T02:41:02.703Z,28.00
2019-02-21T02:43:32.053Z,25.03
2019-02-21T02:46:01.740Z,26.93
2019-02-21T02:48:31.138Z,27.17
2019-02-21T02:51:00.338Z,28.00
2019-02-21T02:53:29.915Z,26.80
2019-02-21T02:55:59.221Z,27.17
2019-02-21T02:58:28.592Z,28.97
2019-02-21T03:00:58.214Z,27.53
2019-02-21T03:03:27.539Z,28.70
2019-02-21T03:05:56.992Z,28.50
2019-02-21T03:08:26.279Z,29.63
2019-02-21T03:10:55.937Z,29.13
2019-02-21T03:13:25.206Z,30.40
2019-02-21T03:15:54.473Z,30.43
2019-02-21T03:18:23.702Z,29.43
2019-02-21T03:20:52.968Z,30.90
2019-02-21T03:23:23.114Z,30.03
2019-02-21T03:25:52.335Z,30.93
2019-02-21T03:28:21.607Z,29.80
2019-02-21T03:30:50.958Z,30.10
2019-02-21T03:33:20.262Z,30.77
2019-02-21T03:35:49.532Z,32.17
2019-02-21T03:38:19.252Z,31.83
2019-02-21T03:40:49.292Z,32.40
2019-02-21T03:43:18.656Z,31.93
2019-02-21T03:45:48.202Z,32.63
2019-02-21T03:48:17.424Z,34.23
2019-02-21T03:50:46.706Z,32.50
2019-02-21T03:53:15.988Z,30.87
2019-02-21T03:55:45.365Z,34.00
2019-02-21T03:58:14.642Z,33.07
2019-02-21T04:00:43.844Z,33.20
2019-02-21T04:03:13.129Z,32.30
2019-02-21T04:05:43.204Z,31.53
2019-02-21T04:08:12.834Z,32.60
2019-02-21T04:10:42.143Z,32.53
2019-02-21T04:13:11.479Z,33.53
2019-02-21T04:15:40.731Z,33.90
2019-02-21T04:18:10.129Z,32.20
2019-02-21T04:20:39.464Z,33.37
2019-02-21T04:23:08.750Z,31.03
2019-02-21T04:25:38.467Z,32.07
2019-02-21T04:28:07.741Z,33.27
2019-02-21T04:30:37.006Z,32.77
2019-02-21T04:33:06.368Z,34.33
2019-02-21T04:35:35.713Z,34.13
2019-02-21T04:38:05.169Z,33.60
2019-02-21T04:40:34.738Z,33.63
2019-02-21T04:43:04.001Z,34.97
2019-02-21T04:45:33.469Z,34.33
2019-02-21T04:48:03.099Z,33.03
2019-02-21T04:50:32.891Z,33.93
2019-02-21T04:53:02.113Z,33.10
2019-02-21T04:55:31.804Z,34.80
2019-02-21T04:58:01.060Z,35.23
2019-02-21T05:00:30.314Z,34.63
2019-02-21T05:02:59.711Z,35.10
2019-02-21T05:05:28.979Z,33.97
2019-02-21T05:07:58.304Z,35.73
2019-02-21T05:10:27.529Z,35.07
2019-02-21T05:12:57.113Z,35.40
2019-02-21T05:15:26.330Z,34.37
2019-02-21T05:17:56.073Z,34.13
2019-02-21T05:20:25.510Z,34.97
2019-02-21T05:22:54.771Z,33.57
2019-02-21T05:25:24.174Z,34.37
2019-02-21T05:28:27.604Z,33.43
2019-02-21T05:31:00.628Z,33.30
2019-02-21T05:33:40.180Z,34.47
2019-02-21T05:36:43.894Z,34.67
2019-02-21T05:39:31.087Z,33.60
2019-02-21T05:42:17.621Z,32.97
2019-02-21T05:45:11.069Z,34.53
2019-02-21T05:47:50.937Z,34.60
2019-02-21T05:50:29.435Z,34.20
2019-02-21T05:53:10.160Z,34.07
2019-02-21T05:55:53.200Z,34.40
2019-02-21T05:58:34.696Z,35.23
2019-02-21T06:01:23.000Z,34.17
2019-02-21T06:04:04.461Z,35.00
2019-02-21T06:06:43.096Z,33.37
2019-02-21T06:09:43.915Z,34.00
2019-02-21T06:12:20.045Z,33.53
2019-02-21T06:14:59.180Z,33.50
2019-02-21T06:17:48.996Z,32.80
2019-02-21T06:20:26.451Z,32.53
2019-02-21T06:23:11.197Z,32.33
2019-02-21T06:25:59.552Z,30.80
2019-02-21T06:28:43.224Z,32.37
2019-02-21T06:31:16.083Z,30.63
2019-02-21T06:33:45.289Z,30.83
2019-02-21T06:36:14.837Z,32.37
2019-02-21T06:38:44.127Z,33.17
2019-02-21T06:41:13.484Z,30.90
2019-02-21T06:43:42.819Z,31.13
2019-02-21T06:46:13.761Z,31.27
2019-02-21T06:48:43.481Z,30.10
2019-02-21T06:51:12.828Z,31.60
2019-02-21T06:53:42.758Z,31.37
2019-02-21T06:56:12.388Z,30.27
2019-02-21T06:58:42.320Z,31.83
2019-02-21T07:01:12.021Z,31.70
2019-02-21T07:03:41.639Z,30.50
2019-02-21T07:06:11.276Z,31.60
2019-02-21T07:08:40.889Z,29.73
2019-02-21T07:11:10.481Z,31.67
2019-02-21T07:13:39.696Z,30.03
2019-02-21T07:16:09.463Z,29.97
2019-02-21T07:18:40.746Z,29.90
2019-02-21T07:21:09.873Z,29.30
2019-02-21T07:23:43.398Z,29.17
2019-02-21T07:26:13.710Z,29.03
2019-02-21T07:28:45.121Z,28.47
2019-02-21T07:31:14.477Z,27.67
2019-02-21T07:33:43.664Z,28.80
2019-02-21T07:36:12.973Z,27.97
2019-02-21T07:38:42.278Z,27.87
2019-02-21T07:41:11.756Z,27.80
2019-02-21T07:43:41.063Z,26.67
2019-02-21T07:46:10.433Z,27.37
2019-02-21T07:48:40.036Z,26.83
2019-02-21T07:51:09.427Z,26.00
2019-02-21T07:53:38.890Z,25.17
2019-02-21T07:56:08.271Z,24.77
2019-02-21T07:58:39.627Z,25.70
2019-02-21T08:01:09.689Z,25.40
2019-02-21T08:03:44.225Z,25.90
2019-02-21T08:06:10.062Z,25.80
2019-02-21T08:08:39.498Z,26.07
2019-02-21T08:11:09.794Z,24.73
2019-02-21T08:13:39.406Z,26.17
2019-02-21T08:16:08.796Z,24.67
2019-02-21T08:18:38.109Z,25.33
2019-02-21T08:21:07.445Z,24.63
2019-02-21T08:23:36.730Z,24.87
2019-02-21T08:26:06.053Z,25.77
2019-02-21T08:28:35.286Z,23.87
2019-02-21T08:31:04.551Z,24.17
2019-02-21T08:33:58.523Z,23.53
2019-02-21T08:36:22.730Z,24.20
2019-02-21T08:38:52.083Z,27.73
2019-02-21T08:41:21.377Z,25.73
2019-02-21T08:43:50.584Z,25.90
2019-02-21T08:46:19.790Z,24.70
2019-02-21T08:48:49.289Z,23.80
2019-02-21T08:51:18.622Z,24.27
2019-02-21T08:53:48.543Z,24.13
2019-02-21T08:56:17.952Z,25.57
2019-02-21T08:58:47.280Z,25.63
2019-02-21T09:01:16.591Z,26.07
2019-02-21T09:03:46.153Z,25.13
2019-02-21T09:06:15.490Z,25.83
2019-02-21T09:08:44.835Z,24.53
2019-02-21T09:11:14.531Z,25.63
2019-02-21T09:13:44.162Z,25.23
2019-02-21T09:16:13.803Z,23.87
2019-02-21T09:18:43.406Z,25.47
2019-02-21T09:21:13.071Z,25.03
2019-02-21T09:23:42.683Z,26.23
2019-02-21T09:26:12.082Z,26.13
2019-02-21T09:28:41.868Z,27.57
2019-02-21T09:31:11.591Z,26.23
2019-02-21T09:33:40.926Z,28.00
2019-02-21T09:36:10.218Z,27.07
2019-02-21T09:38:39.414Z,26.40
2019-02-21T09:41:08.818Z,25.30
2019-02-21T09:43:38.553Z,28.07
2019-02-21T09:46:08.339Z,25.97
2019-02-21T09:48:37.670Z,25.10
2019-02-21T09:51:07.034Z,25.47
2019-02-21T09:53:36.421Z,23.63
2019-02-21T09:56:05.742Z,25.20
2019-02-21T09:58:35.786Z,24.47
2019-02-21T10:01:05.903Z,25.30
2019-02-21T10:03:35.929Z,24.83
2019-02-21T10:06:05.705Z,25.20
2019-02-21T10:08:36.275Z,25.63
2019-02-21T10:11:05.690Z,23.90
2019-02-21T10:13:35.444Z,23.73
2019-02-21T10:16:04.956Z,23.87
2019-02-21T10:18:34.332Z,22.80
2019-02-21T10:21:04.009Z,22.20
2019-02-21T10:23:33.978Z,22.47
2019-02-21T10:26:03.963Z,21.33
2019-02-21T10:28:33.360Z,21.77
2019-02-21T10:31:03.459Z,22.60
2019-02-21T10:33:32.926Z,22.97
2019-02-21T10:36:03.294Z,20.93
2019-02-21T10:38:33.115Z,19.90
2019-02-21T10:41:02.541Z,21.40
2019-02-21T10:43:31.898Z,21.93
2019-02-21T10:46:01.629Z,21.70
2019-02-21T10:48:31.398Z,22.03
2019-02-21T10:51:00.875Z,20.97
2019-02-21T10:53:30.068Z,20.33
2019-02-21T10:55:59.403Z,21.10
2019-02-21T10:58:28.778Z,21.37
2019-02-21T11:00:58.102Z,21.73
2019-02-21T11:03:27.909Z,20.60
2019-02-21T11:05:57.205Z,20.07
2019-02-21T11:08:26.581Z,21.47
2019-02-21T11:10:57.110Z,20.97
2019-02-21T11:13:26.504Z,20.33
2019-02-21T11:15:56.081Z,16.50
2019-02-21T11:18:25.433Z,17.20
2019-02-21T11:20:55.107Z,17.83
2019-02-21T11:23:24.585Z,17.13
2019-02-21T11:25:54.005Z,19.10
2019-02-21T11:28:23.356Z,18.00
2019-02-21T11:30:53.001Z,17.50
2019-02-21T11:33:22.359Z,18.03
2019-02-21T11:35:51.735Z,18.37
2019-02-21T11:38:21.085Z,17.27
2019-02-21T11:40:50.701Z,16.87
2019-02-21T11:43:20.076Z,18.57
2019-02-21T11:45:54.320Z,17.47
2019-02-21T11:48:21.568Z,18.00
2019-02-21T11:50:50.932Z,16.70
2019-02-21T11:53:20.604Z,17.93
2019-02-21T11:55:49.996Z,16.53
2019-02-21T11:58:19.287Z,17.20
2019-02-21T12:00:48.592Z,16.20
2019-02-21T12:03:18.271Z,16.63
2019-02-21T12:05:47.469Z,16.60
2019-02-21T12:08:17.133Z,17.43
2019-02-21T12:10:46.801Z,16.90
2019-02-21T12:13:16.732Z,17.27
2019-02-21T12:15:46.402Z,16.53
2019-02-21T12:18:16.017Z,17.07
2019-02-21T12:20:45.315Z,16.33
2019-02-21T12:23:16.963Z,15.97
2019-02-21T12:25:45.522Z,14.93
2019-02-21T12:28:14.810Z,14.13
2019-02-21T12:30:44.094Z,13.37
2019-02-21T12:33:13.414Z,13.87
2019-02-21T12:35:42.799Z,13.17
2019-02-21T12:38:12.894Z,14.03
2019-02-21T12:40:42.612Z,12.60
2019-02-21T12:43:11.996Z,12.80
2019-02-21T12:45:41.256Z,12.87
2019-02-21T12:48:10.944Z,13.37
2019-02-21T12:50:44.216Z,12.97
2019-02-21T12:53:11.204Z,13.10
2019-02-21T12:55:40.966Z,12.87
2019-02-21T13:03:12.892Z,13.57
2019-02-21T13:07:08.743Z,13.27
2019-02-21T13:59:12.308Z,17.37
2019-02-21T15:58:03.343Z,17.37
2019-02-21T16:00:26.131Z,17.87
2019-02-21T16:02:56.883Z,17.33
2019-02-21T16:05:26.525Z,18.30
2019-02-21T16:07:56.644Z,19.20
2019-02-21T16:10:26.173Z,17.93
2019-02-21T16:12:56.276Z,17.63
2019-02-21T16:15:26.498Z,22.23
2019-02-21T16:17:55.811Z,19.40
2019-02-21T16:20:25.657Z,18.73
2019-02-21T16:22:55.043Z,18.67
2019-02-21T16:25:24.422Z,18.63
2019-02-21T16:27:55.526Z,19.00
2019-02-21T16:30:25.109Z,18.60
2019-02-21T16:32:54.453Z,18.00
2019-02-21T16:35:24.236Z,19.70
2019-02-21T16:37:53.640Z,19.47
2019-02-21T16:40:23.050Z,18.23
2019-02-21T16:42:52.743Z,18.90
2019-02-21T16:45:22.391Z,19.50
2019-02-21T16:47:51.748Z,19.07
2019-02-21T16:50:29.294Z,19.30
2019-02-21T16:52:52.843Z,19.93
2019-02-21T16:55:22.201Z,19.03
2019-02-21T16:57:51.544Z,19.17
2019-02-21T17:00:21.257Z,19.27
2019-02-21T17:02:50.610Z,19.20
2019-02-21T17:05:20.517Z,20.07
2019-02-21T17:07:51.147Z,19.60
2019-02-21T17:10:20.874Z,19.20
2019-02-21T17:12:50.726Z,20.47
2019-02-21T17:15:20.114Z,20.17
2019-02-21T17:17:49.467Z,19.50
2019-02-21T17:20:19.323Z,20.47
2019-02-21T17:22:48.695Z,20.37
2019-02-21T17:25:18.160Z,21.10
2019-02-21T17:27:47.930Z,20.73
2019-02-21T17:30:17.721Z,20.40
2019-02-21T17:32:47.383Z,20.07
2019-02-21T17:35:17.192Z,21.00
2019-02-21T17:37:46.965Z,21.57
2019-02-21T17:40:18.299Z,20.47
2019-02-21T17:42:47.629Z,18.80
2019-02-21T17:45:17.287Z,21.63
2019-02-21T17:47:46.686Z,21.63
2019-02-21T17:50:16.857Z,21.93
2019-02-21T17:52:46.430Z,23.07
2019-02-21T17:55:18.487Z,21.87
2019-02-21T17:57:48.008Z,21.60
2019-02-21T18:00:22.072Z,21.77
2019-02-21T18:02:51.489Z,21.53
2019-02-21T18:05:20.704Z,21.90
2019-02-21T18:07:49.995Z,22.37
2019-02-21T18:10:23.611Z,21.03
2019-02-21T18:12:53.270Z,20.40
2019-02-21T18:15:22.645Z,21.37
2019-02-21T18:17:52.148Z,21.80
2019-02-21T18:20:21.458Z,21.73
2019-02-21T18:22:51.146Z,22.43
2019-02-21T18:25:23.957Z,22.47
2019-02-21T18:27:53.345Z,22.43
2019-02-21T18:30:22.833Z,23.90
2019-02-21T18:32:52.167Z,23.07
2019-02-21T18:35:21.521Z,23.73
2019-02-21T18:37:50.808Z,23.47
2019-02-21T18:40:21.041Z,22.43
2019-02-21T18:42:50.505Z,23.97
2019-02-21T18:45:20.423Z,23.00
2019-02-21T18:47:49.834Z,23.50
2019-02-21T18:50:19.754Z,23.70
2019-02-21T18:52:49.150Z,23.30
2019-02-21T18:55:18.969Z,24.40
2019-02-21T18:57:48.668Z,23.17
2019-02-21T19:00:20.061Z,22.37
2019-02-21T19:02:49.466Z,22.93
2019-02-21T19:05:18.900Z,23.37
2019-02-21T19:08:00.491Z,22.73
2019-02-21T19:10:19.740Z,23.00
2019-02-21T19:12:49.301Z,24.13
2019-02-21T19:15:19.295Z,23.33
2019-02-21T19:17:48.801Z,23.43
2019-02-21T19:20:18.633Z,23.33
2019-02-21T19:22:48.715Z,25.10
2019-02-21T19:25:18.142Z,25.67
2019-02-21T19:27:47.518Z,24.47
2019-02-21T19:30:25.655Z,24.10
2019-02-21T19:32:54.568Z,23.50
2019-02-21T19:35:23.997Z,23.20
2019-02-21T19:37:53.464Z,23.93
2019-02-21T19:40:23.107Z,24.93
2019-02-21T19:42:52.763Z,23.47
2019-02-21T19:45:22.542Z,24.07
2019-02-21T19:47:51.938Z,24.20
2019-02-21T19:50:21.334Z,23.90
2019-02-21T19:52:50.948Z,25.03
2019-02-21T19:55:20.601Z,25.47
2019-02-21T19:57:49.953Z,24.37
2019-02-21T20:00:21.272Z,24.17
2019-02-21T20:02:50.588Z,24.63
2019-02-21T20:05:19.934Z,24.37
2019-02-21T20:07:49.364Z,25.43
2019-02-21T20:10:19.279Z,24.87
2019-02-21T20:12:48.706Z,23.73
2019-02-21T20:15:18.677Z,25.10
2019-02-21T20:17:48.458Z,25.40
2019-02-21T20:20:19.876Z,23.83
2019-02-21T20:22:49.206Z,23.43
2019-02-21T20:25:18.516Z,23.83
2019-02-21T20:27:47.902Z,24.70
2019-02-21T20:30:17.489Z,24.53
2019-02-21T20:32:46.961Z,24.43
2019-02-21T20:35:16.340Z,25.60
2019-02-21T20:37:45.980Z,23.53
2019-02-21T20:40:15.279Z,23.07
2019-02-21T20:42:44.499Z,23.30
2019-02-21T20:45:14.000Z,22.77
2019-02-21T20:47:43.473Z,23.07
2019-02-21T20:50:13.442Z,23.17
2019-02-21T20:52:42.893Z,23.10
2019-02-21T20:55:12.400Z,23.20
2019-02-21T20:57:41.673Z,24.23
2019-02-21T21:00:12.353Z,23.97
2019-02-21T21:02:41.915Z,25.70
2019-02-21T21:05:11.594Z,23.60
2019-02-21T21:07:40.903Z,25.10
2019-02-21T21:10:12.776Z,24.63
2019-02-21T21:12:42.337Z,25.90
2019-02-21T21:15:13.348Z,24.97
2019-02-21T21:17:42.803Z,25.00
2019-02-21T21:20:16.853Z,25.50
2019-02-21T21:22:43.747Z,24.20
2019-02-21T21:25:14.236Z,22.73
2019-02-21T21:27:44.167Z,24.03
2019-02-21T21:30:14.546Z,23.27
2019-02-21T21:32:43.922Z,22.60
2019-02-21T21:35:13.248Z,23.83
2019-02-21T21:37:42.722Z,22.53
2019-02-21T21:40:13.667Z,20.93
2019-02-21T21:42:43.349Z,22.40
2019-02-21T21:45:15.093Z,20.73
2019-02-21T21:47:44.420Z,21.67
2019-02-21T21:50:15.171Z,21.67
2019-02-21T21:52:44.506Z,23.17
2019-02-21T21:55:14.336Z,21.50
2019-02-21T21:57:44.066Z,22.53
2019-02-21T22:00:18.845Z,21.50
2019-02-21T22:02:52.233Z,22.17
2019-02-21T22:05:21.963Z,22.70
2019-02-21T22:07:51.255Z,21.50
2019-02-21T22:10:20.577Z,22.40
2019-02-21T22:12:50.422Z,23.03
2019-02-21T22:15:19.794Z,22.60
2019-02-21T22:17:49.399Z,21.47
2019-02-21T22:20:19.102Z,23.17
2019-02-21T22:22:48.466Z,22.33
2019-02-21T22:25:18.174Z,22.57
2019-02-21T22:27:47.438Z,22.30
2019-02-21T22:30:17.100Z,21.93
2019-02-21T22:32:46.387Z,21.20
2019-02-21T22:35:15.746Z,23.23
2019-02-21T22:37:44.957Z,22.20
2019-02-21T22:40:14.346Z,21.90
2019-02-21T22:42:43.901Z,22.00
2019-02-21T22:45:13.541Z,22.77
2019-02-21T22:47:42.904Z,22.83
2019-02-21T22:50:13.789Z,23.27
2019-02-21T22:52:43.140Z,22.73
2019-02-21T22:55:12.979Z,23.07
2019-02-21T22:57:42.720Z,23.57
2019-02-21T23:01:01.520Z,24.17
2019-02-21T23:03:37.300Z,23.60
2019-02-21T23:06:34.176Z,24.00
2019-02-21T23:09:05.671Z,24.10
2019-02-21T23:11:34.882Z,24.37
2019-02-21T23:14:04.076Z,24.43
2019-02-21T23:16:33.864Z,24.83
2019-02-21T23:19:03.204Z,25.30
2019-02-21T23:21:32.432Z,26.10
2019-02-21T23:24:01.744Z,24.13
2019-02-21T23:26:30.946Z,24.73
2019-02-21T23:29:00.582Z,25.63
2019-02-21T23:31:29.969Z,25.93
2019-02-21T23:34:00.429Z,25.43
2019-02-21T23:36:30.084Z,26.93
2019-02-21T23:38:59.324Z,26.37
2019-02-21T23:41:28.517Z,26.33
2019-02-21T23:43:57.700Z,28.17
2019-02-21T23:46:27.188Z,26.83
2019-02-21T23:48:56.995Z,27.10
2019-02-21T23:51:26.317Z,27.47
2019-02-21T23:54:03.105Z,27.37
2019-02-21T23:56:26.983Z,27.03
2019-02-21T23:58:56.665Z,27.97
